Portada
METAR-TAF:

METAR-TAF

Aeroports :

Cusco, Perú

latitud: 13-33S, longitud: 071-59W, altitud: 3248 m

Observació

L'informe es va fer fa 37 minuts, a les 02:00 UTC
Vent 3 kt del Nord-Est, variant entre Nord i Est
Temperatura 10°C
Humitat 62%
Pressió 1032 hPa
Visibilitat 10 km o més

METAR: SPZO 240200Z 04003KT 010V080 9999 NSC 10/03 Q1032 NOSIG RMK BIRD HAZARD RWY 10/28 PP000

Hora: 21:37 (02:37 UTC)

Pronòstic

L'informe es va fer fa 3 hores i 37 minuts, a les 23:00 UTC
Pronòstic vàlid del 24 a les 00 UTC al 24 a les 24 UTC
Vent 5 kt del Oest/Nord-Oest
Visibilitat 10 km o més
Temporalment
l' 24 a les 19 UTC al 24 a les 21 UTC
Vent 15 kt del Oest/Nord-Oest

TAF: SPZO 232300Z 2400/2424 29005KT 9999 NSC TX22/2419Z TNM01/2411Z TEMPO 2419/2421 30015KT

Observacions i pronòstics meteorològics de més de 4000 aeroports (METAR i TAF).

Les estacions disponibles són els punts grocs i vermells al mapa.

Posi el ratolí al punt desitjat per veure el nom de l'estació.

Feu clic per veure les observacions i els pronòstics meteorològics.

Per canviar el mapa: feu clic els botons verds amb una creu de color negre per apropar; al botó verd amb un guió per allunyar la imatge; o en les fletxes verdes per a mapes adjacents.


METAR-TAF: